Time;durP1;ratioP1;P1;durP2;ratioP2;P2;SDS_P1;SDS_P2;PMS_P1;PMS_P2;Temp;Humidity;BMP_temperature;BMP_pressure;BME280_temperature;BME280_humidity;BME280_pressure;Samples;Min_cycle;Max_cycle;Signal;HPM_P1;HPM_P2
2023/07/11 00:02:24;;;;;;;8.80;6.55;;;;;;;17.72;100.00;97804.03;5131081;27;20379;-75
2023/07/11 00:04:49;;;;;;;12.77;6.53;;;;;;;17.83;100.00;97800.41;5132292;27;20023;-76
2023/07/11 00:07:15;;;;;;;9.68;6.78;;;;;;;17.78;100.00;97798.09;5131115;27;20030;-76
2023/07/11 00:09:40;;;;;;;9.82;6.97;;;;;;;17.71;100.00;97786.09;5130093;27;20045;-75
2023/07/11 00:12:06;;;;;;;10.02;6.53;;;;;;;17.62;100.00;97783.34;5131961;27;20107;-75
2023/07/11 00:14:32;;;;;;;9.45;7.05;;;;;;;17.51;100.00;97789.63;5113813;27;20497;-75
2023/07/11 00:16:58;;;;;;;11.70;7.30;;;;;;;17.51;100.00;97797.75;5113479;27;20027;-76
2023/07/11 00:19:23;;;;;;;12.70;7.30;;;;;;;17.52;100.00;97793.19;5130750;27;20019;-76
2023/07/11 00:21:49;;;;;;;10.38;6.90;;;;;;;17.55;100.00;97796.53;5130750;27;20019;-76
2023/07/11 00:24:14;;;;;;;12.63;7.07;;;;;;;17.51;100.00;97792.31;5131985;27;20023;-76
2023/07/11 00:26:40;;;;;;;10.80;6.78;;;;;;;17.50;100.00;97801.47;5130802;27;20023;-76
2023/07/11 00:29:18;;;;;;;16.55;7.55;;;;;;;17.58;100.00;97801.69;5131933;27;20098;-76
2023/07/11 00:31:44;;;;;;;10.65;7.28;;;;;;;17.56;100.00;97803.66;5130571;27;20027;-76
2023/07/11 00:34:09;;;;;;;9.40;7.00;;;;;;;17.56;100.00;97808.22;5131778;27;20030;-76
2023/07/11 00:36:35;;;;;;;11.80;7.25;;;;;;;17.56;100.00;97802.81;5113493;27;20497;-76
2023/07/11 00:39:01;;;;;;;10.45;7.45;;;;;;;17.57;100.00;97804.50;5130597;27;20019;-76
2023/07/11 00:41:27;;;;;;;14.25;7.05;;;;;;;17.61;100.00;97803.25;5130883;27;20047;-75
2023/07/11 00:43:52;;;;;;;10.30;6.90;;;;;;;17.58;100.00;97803.50;5130567;27;20035;-75
2023/07/11 00:46:19;;;;;;;9.77;7.25;;;;;;;17.62;100.00;97803.13;5130118;27;20055;-75
2023/07/11 00:48:58;;;;;;;11.68;7.07;;;;;;;17.55;100.00;97799.22;5111120;28;20115;-75
2023/07/11 00:51:49;;;;;;;11.32;7.28;;;;;;;17.48;100.00;97795.31;5126107;28;20027;-75
2023/07/11 00:54:17;;;;;;;13.45;7.72;;;;;;;17.50;100.00;97797.88;5120343;28;20091;-75
2023/07/11 00:56:47;;;;;;;10.25;7.28;;;;;;;17.45;100.00;97794.69;5120039;27;20031;-75
2023/07/11 00:59:14;;;;;;;9.63;7.70;;;;;;;17.39;100.00;97795.22;5111153;28;20027;-76
2023/07/11 01:01:41;;;;;;;13.75;7.22;;;;;;;17.35;100.00;97800.03;5113178;28;20109;-76
2023/07/11 01:04:07;;;;;;;20.55;7.88;;;;;;;17.35;100.00;97794.63;5113018;28;20023;-76
2023/07/11 01:06:33;;;;;;;9.60;7.40;;;;;;;17.28;100.00;97806.97;5109092;28;20077;-75
2023/07/11 01:09:00;;;;;;;14.63;7.45;;;;;;;17.25;100.00;97802.69;5105695;28;20028;-76
2023/07/11 01:11:28;;;;;;;13.93;7.75;;;;;;;17.20;100.00;97791.38;5109609;28;20047;-75
2023/07/11 01:13:54;;;;;;;12.93;6.80;;;;;;;17.09;100.00;97804.97;5110923;28;20570;-76
2023/07/11 01:16:20;;;;;;;10.77;7.25;;;;;;;17.04;100.00;97799.06;5111543;28;20023;-76
2023/07/11 01:18:45;;;;;;;15.35;7.35;;;;;;;17.11;100.00;97788.59;5130211;28;20027;-76
2023/07/11 01:21:21;;;;;;;11.57;7.50;;;;;;;17.05;100.00;97783.72;5115915;27;20106;-76
2023/07/11 01:23:47;;;;;;;16.38;9.05;;;;;;;17.00;100.00;97784.13;5111392;28;20028;-77
2023/07/11 01:26:12;;;;;;;11.05;7.90;;;;;;;16.95;100.00;97774.69;5114686;28;20092;-76
2023/07/11 01:28:41;;;;;;;11.90;7.35;;;;;;;16.99;100.00;97782.38;5130946;27;20039;-76
2023/07/11 01:31:07;;;;;;;11.23;7.43;;;;;;;17.04;100.00;97790.13;5126963;27;20031;-77
2023/07/11 01:33:33;;;;;;;9.38;7.38;;;;;;;17.08;100.00;97787.00;5126303;27;20079;-76
2023/07/11 01:35:59;;;;;;;14.93;7.70;;;;;;;17.07;100.00;97788.00;5114828;28;20574;-76
2023/07/11 01:38:26;;;;;;;16.55;7.57;;;;;;;17.02;100.00;97786.66;5115450;27;20145;-77
2023/07/11 01:40:51;;;;;;;11.23;7.53;;;;;;;16.98;100.00;97786.06;5134066;27;20390;-76
2023/07/11 01:43:18;;;;;;;12.98;8.15;;;;;;;16.91;100.00;97768.66;5133794;27;20023;-77
2023/07/11 01:45:44;;;;;;;13.15;7.90;;;;;;;16.98;100.00;97775.25;5116377;27;20039;-76
2023/07/11 01:48:09;;;;;;;10.48;7.35;;;;;;;16.97;100.00;97776.25;5133848;27;20336;-76
2023/07/11 01:50:35;;;;;;;12.65;7.75;;;;;;;16.99;100.00;97782.38;5116349;27;20015;-76
2023/07/11 01:53:01;;;;;;;12.63;7.97;;;;;;;17.04;100.00;97776.59;5119519;27;20459;-76
2023/07/11 01:55:26;;;;;;;16.35;7.80;;;;;;;16.98;100.00;97774.41;5114172;28;20062;-76
2023/07/11 01:57:52;;;;;;;10.30;7.05;;;;;;;16.89;100.00;97765.22;5131236;27;20042;-76
2023/07/11 02:00:18;;;;;;;10.57;7.40;;;;;;;16.84;100.00;97772.88;5133464;27;20038;-76
2023/07/11 02:02:44;;;;;;;14.38;7.85;;;;;;;16.77;100.00;97769.81;5133527;27;20057;-76
2023/07/11 02:05:09;;;;;;;13.05;7.68;;;;;;;16.87;100.00;97769.91;5116395;27;20056;-76
2023/07/11 02:07:35;;;;;;;11.50;7.43;;;;;;;16.83;100.00;97759.50;5134544;27;20478;-76
2023/07/11 02:10:00;;;;;;;11.90;7.88;;;;;;;16.84;100.00;97772.88;5133177;27;20484;-76
2023/07/11 02:12:26;;;;;;;13.48;8.30;;;;;;;16.77;100.00;97772.50;5133005;27;20079;-74
2023/07/11 02:14:51;;;;;;;13.57;7.88;;;;;;;16.76;100.00;97768.09;5133301;27;20113;-75
2023/07/11 02:17:17;;;;;;;16.27;7.97;;;;;;;16.78;100.00;97776.94;5133304;27;20023;-75
2023/07/11 02:19:46;;;;;;;12.57;8.10;;;;;;;16.77;100.00;97771.66;5115918;27;20211;-75
2023/07/11 02:22:11;;;;;;;20.15;7.70;;;;;;;16.71;100.00;97762.22;5133157;27;20351;-75
2023/07/11 02:24:39;;;;;;;12.45;8.05;;;;;;;16.78;100.00;97754.47;5133038;27;20030;-75
2023/07/11 02:27:05;;;;;;;10.90;7.97;;;;;;;16.78;100.00;97762.56;5115787;27;20474;-76
2023/07/11 02:29:30;;;;;;;11.77;7.80;;;;;;;16.70;100.00;97765.91;5132839;27;20027;-75
2023/07/11 02:31:56;;;;;;;13.20;8.07;;;;;;;16.66;100.00;97756.34;5114197;27;20121;-75
2023/07/11 02:34:21;;;;;;;18.45;8.15;;;;;;;16.56;100.00;97752.69;5112119;27;20059;-76
2023/07/11 02:36:47;;;;;;;11.52;8.23;;;;;;;16.64;100.00;97766.41;5134158;27;20362;-75
2023/07/11 02:39:13;;;;;;;13.10;8.30;;;;;;;16.65;100.00;97762.72;5134335;27;20027;-76
2023/07/11 02:41:39;;;;;;;12.25;8.35;;;;;;;16.63;100.00;97758.44;5132742;27;20031;-75
2023/07/11 02:44:04;;;;;;;24.88;8.80;;;;;;;16.54;100.00;97764.56;5132383;27;20087;-76
2023/07/11 02:46:30;;;;;;;14.15;8.82;;;;;;;16.46;100.00;97767.88;5115232;27;20379;-76
2023/07/11 02:48:56;;;;;;;18.25;9.82;;;;;;;16.51;100.00;97762.13;5133807;27;20023;-76
2023/07/11 02:51:22;;;;;;;13.70;9.20;;;;;;;16.49;100.00;97761.41;5107513;28;20071;-75
2023/07/11 02:53:48;;;;;;;15.20;9.48;;;;;;;16.49;100.00;97762.25;5094778;28;20023;-76
2023/07/11 02:56:14;;;;;;;13.55;8.82;;;;;;;16.54;100.00;97767.28;5114287;27;20096;-76
2023/07/11 02:58:39;;;;;;;13.27;7.95;;;;;;;16.53;100.00;97752.91;5132485;27;20023;-76
2023/07/11 03:01:05;;;;;;;14.30;8.00;;;;;;;16.60;100.00;97753.28;5133696;27;20022;-76
2023/07/11 03:03:31;;;;;;;12.90;7.88;;;;;;;16.51;100.00;97754.88;5133278;27;20080;-76
2023/07/11 03:06:05;;;;;;;13.07;7.63;;;;;;;16.50;100.00;97746.91;5128217;27;20110;-77
2023/07/11 03:13:17;;;;;;;;;;;;;;;;;;;;;
2023/07/11 03:16:00;;;;;;;13.52;9.27;;;;;;;16.25;100.00;97732.72;4895532;29;20056;-86
2023/07/11 03:18:26;;;;;;;49.60;13.98;;;;;;;16.37;100.00;97738.09;4891649;29;20540;-74
2023/07/11 03:20:51;;;;;;;41.20;12.98;;;;;;;16.57;100.00;97758.94;4994131;28;20087;-75
2023/07/11 03:23:20;;;;;;;14.25;7.60;;;;;;;16.66;100.00;97759.06;5095778;28;20059;-75
2023/07/11 03:25:46;;;;;;;14.63;7.60;;;;;;;16.67;100.00;97760.75;5129995;27;20115;-77
2023/07/11 03:28:11;;;;;;;11.15;8.13;;;;;;;16.67;100.00;97763.44;5126348;27;20050;-74
2023/07/11 03:30:37;;;;;;;14.38;7.80;;;;;;;16.73;100.00;97765.63;5128416;27;20019;-75
2023/07/11 03:33:03;;;;;;;13.98;8.52;;;;;;;16.74;100.00;97764.66;5114430;27;20068;-74
2023/07/11 03:35:29;;;;;;;18.52;8.07;;;;;;;16.72;100.00;97761.25;5131509;27;20034;-74
2023/07/11 03:37:54;;;;;;;16.77;8.77;;;;;;;16.58;100.00;97744.47;5131499;27;20028;-74
2023/07/11 03:40:20;;;;;;;18.75;8.65;;;;;;;16.78;100.00;97763.44;5131529;27;20094;-74
2023/07/11 03:42:45;;;;;;;12.18;8.05;;;;;;;16.82;100.00;97753.22;5132604;27;20019;-75
2023/07/11 03:45:11;;;;;;;11.25;8.10;;;;;;;16.90;100.00;97766.09;5118219;27;20031;-85
2023/07/11 03:47:36;;;;;;;14.93;8.35;;;;;;;16.93;100.00;97763.13;5093941;28;20051;-78
2023/07/11 03:50:02;;;;;;;20.92;10.35;;;;;;;17.08;100.00;97770.78;5106021;28;20118;-78
2023/07/11 03:52:28;;;;;;;24.02;9.57;;;;;;;17.17;100.00;97770.00;5093765;28;20082;-75
2023/07/11 03:54:53;;;;;;;14.77;8.02;;;;;;;17.20;100.00;97756.25;5129784;27;20566;-75
2023/07/11 03:57:19;;;;;;;18.88;10.90;;;;;;;17.17;100.00;97761.03;5131126;27;20439;-76
2023/07/11 03:59:45;;;;;;;15.77;9.27;;;;;;;17.19;100.00;97756.38;5131080;27;20118;-75
2023/07/11 04:02:10;;;;;;;15.43;8.57;;;;;;;17.25;100.00;97756.72;5131004;27;20106;-75
2023/07/11 04:04:36;;;;;;;14.90;8.45;;;;;;;17.23;100.00;97755.13;5132430;27;20057;-76
2023/07/11 04:07:03;;;;;;;18.20;8.75;;;;;;;17.34;100.00;97772.16;5132095;27;20113;-75
2023/07/11 04:09:29;;;;;;;14.13;7.82;;;;;;;17.28;100.00;97766.41;5113750;27;20026;-75
2023/07/11 04:11:54;;;;;;;10.52;7.90;;;;;;;17.21;100.00;97767.91;5130672;27;20049;-75
2023/07/11 04:14:20;;;;;;;13.82;8.07;;;;;;;17.33;100.00;97767.72;5131570;27;20027;-75
2023/07/11 04:16:45;;;;;;;18.80;9.10;;;;;;;17.35;100.00;97767.56;5127457;27;20069;-75
2023/07/11 04:19:11;;;;;;;20.80;10.93;;;;;;;17.45;100.00;97767.66;5130933;27;20050;-75
2023/07/11 04:21:36;;;;;;;18.55;8.18;;;;;;;17.65;100.00;97762.28;5130741;27;20079;-75
2023/07/11 04:24:02;;;;;;;15.95;8.77;;;;;;;17.78;100.00;97768.31;5128237;27;20031;-76
2023/07/11 04:26:28;;;;;;;14.10;7.43;;;;;;;17.93;100.00;97758.03;5128870;27;20019;-76
2023/07/11 04:28:53;;;;;;;9.52;7.45;;;;;;;18.08;100.00;97758.50;5130582;27;20126;-76
2023/07/11 04:31:19;;;;;;;18.10;9.13;;;;;;;18.16;100.00;97759.53;5131513;27;20046;-76
2023/07/11 04:33:44;;;;;;;21.17;8.93;;;;;;;18.00;100.00;97769.13;5113578;27;20032;-75
2023/07/11 04:36:15;;;;;;;25.40;9.32;;;;;;;18.08;100.00;97772.91;5127158;27;20023;-76
2023/07/11 04:38:42;;;;;;;24.20;9.50;;;;;;;18.12;100.00;97757.25;5110043;28;20034;-75
2023/07/11 04:41:08;;;;;;;29.75;10.10;;;;;;;18.34;100.00;97755.16;5129547;27;20019;-76
2023/07/11 04:43:33;;;;;;;27.27;9.40;;;;;;;18.56;100.00;97755.97;5130533;27;20067;-75
2023/07/11 04:46:00;;;;;;;23.98;8.50;;;;;;;18.61;100.00;97768.09;5111740;27;20502;-75
2023/07/11 04:48:26;;;;;;;18.40;9.35;;;;;;;18.72;100.00;97768.00;5106408;27;20023;-75
2023/07/11 04:51:03;;;;;;;21.33;9.30;;;;;;;18.93;100.00;97766.03;5130081;27;20031;-76
2023/07/11 04:53:30;;;;;;;35.60;9.98;;;;;;;19.11;100.00;97771.59;5130637;27;20031;-74
2023/07/11 04:56:01;;;;;;;17.77;8.43;;;;;;;19.18;100.00;97767.31;5112442;28;20023;-74
2023/07/11 04:58:30;;;;;;;27.55;9.90;;;;;;;19.45;100.00;97772.03;5130190;27;20064;-73
2023/07/11 05:01:00;;;;;;;24.52;9.38;;;;;;;19.88;100.00;97764.25;5113491;28;20023;-73
2023/07/11 05:03:26;;;;;;;21.08;8.65;;;;;;;20.63;100.00;97760.50;5130376;28;20180;-74
2023/07/11 05:05:52;;;;;;;15.30;8.23;;;;;;;21.17;100.00;97759.56;5113188;28;20119;-74
2023/07/11 05:08:17;;;;;;;31.77;9.20;;;;;;;22.27;100.00;97749.84;5119713;27;20024;-74
2023/07/11 05:11:03;;;;;;;45.70;20.48;;;;;;;22.91;100.00;97749.28;5107645;28;20027;-73
2023/07/11 05:13:32;;;;;;;18.40;8.10;;;;;;;23.48;100.00;97736.56;5125705;27;20184;-74
2023/07/11 05:16:02;;;;;;;18.80;8.50;;;;;;;23.86;100.00;97734.16;5092465;28;20042;-74
2023/07/11 05:18:28;;;;;;;11.48;7.95;;;;;;;23.70;100.00;97740.50;5122815;28;20021;-73
2023/07/11 05:20:55;;;;;;;23.35;8.75;;;;;;;24.12;100.00;97735.66;5113110;28;20110;-74
2023/07/11 05:23:22;;;;;;;22.02;7.35;;;;;;;25.13;100.00;97733.84;5129865;27;20492;-73
2023/07/11 05:25:48;;;;;;;16.75;7.53;;;;;;;25.27;100.00;97724.84;5112970;28;20478;-73
2023/07/11 05:28:14;;;;;;;19.88;8.95;;;;;;;25.68;100.00;97739.13;5131053;27;20031;-74
2023/07/11 05:30:40;;;;;;;13.60;8.20;;;;;;;26.00;100.00;97724.22;5131324;27;20442;-73
2023/07/11 05:33:05;;;;;;;27.65;8.25;;;;;;;25.32;100.00;97746.22;5121865;27;20051;-74
2023/07/11 05:36:07;;;;;;;14.80;7.82;;;;;;;25.78;100.00;97749.78;5105263;28;20030;-74
2023/07/11 05:38:28;;;;;;;15.73;7.55;;;;;;;25.94;100.00;97746.91;5130555;27;20099;-74
2023/07/11 05:40:53;;;;;;;13.63;7.85;;;;;;;26.12;100.00;97750.16;5112879;28;20027;-74
2023/07/11 05:43:19;;;;;;;15.95;7.97;;;;;;;25.68;100.00;97743.75;5112600;28;20031;-73
2023/07/11 05:45:44;;;;;;;15.93;7.43;;;;;;;25.36;100.00;97747.56;5129784;28;20135;-74
2023/07/11 05:48:10;;;;;;;15.77;7.78;;;;;;;26.02;100.00;97738.63;5129961;28;20386;-74
2023/07/11 05:50:35;;;;;;;16.08;8.07;;;;;;;27.09;100.00;97732.53;5129570;28;20031;-74
2023/07/11 05:53:01;;;;;;;21.95;15.32;;;;;;;27.55;95.44;97721.19;5129882;27;20058;-74
2023/07/11 05:55:27;;;;;;;20.23;7.40;;;;;;;28.25;90.07;97708.25;5129460;27;20027;-74
2023/07/11 05:57:52;;;;;;;14.15;7.30;;;;;;;28.64;85.12;97720.53;5129025;27;20027;-74
2023/07/11 06:00:18;;;;;;;11.80;7.65;;;;;;;28.53;85.92;97728.31;5123057;28;20487;-74
2023/07/11 06:02:43;;;;;;;11.48;7.60;;;;;;;27.37;93.47;97736.22;5109678;28;20029;-74
2023/07/11 06:05:09;;;;;;;13.20;7.50;;;;;;;26.85;97.26;97735.63;5126543;27;20046;-74
2023/07/11 06:07:35;;;;;;;23.88;8.35;;;;;;;25.72;100.00;97742.31;5124821;27;20023;-73
2023/07/11 06:10:01;;;;;;;10.98;7.78;;;;;;;25.31;100.00;97756.34;5125475;27;20113;-73
2023/07/11 06:12:26;;;;;;;24.05;9.02;;;;;;;24.62;100.00;97759.06;5121674;27;20066;-74
2023/07/11 06:14:52;;;;;;;15.23;8.68;;;;;;;23.63;100.00;97761.31;5130466;27;20058;-73
2023/07/11 06:17:17;;;;;;;43.38;11.90;;;;;;;23.60;100.00;97762.53;5113140;27;20038;-74
2023/07/11 06:19:43;;;;;;;16.83;8.82;;;;;;;23.41;100.00;97762.84;5129836;27;20451;-75
2023/07/11 06:22:08;;;;;;;24.58;8.85;;;;;;;23.34;100.00;97756.34;5130189;27;20091;-74
2023/07/11 06:27:13;;;;;;;30.35;9.75;;;;;;;23.06;100.00;97761.25;5134394;27;20118;-74
2023/07/11 06:29:39;;;;;;;21.00;9.43;;;;;;;23.12;100.00;97757.84;5128776;27;20477;-74
2023/07/11 06:32:05;;;;;;;15.20;9.07;;;;;;;23.28;100.00;97761.63;5123802;28;20035;-74
2023/07/11 06:34:30;;;;;;;56.58;32.25;;;;;;;23.31;100.00;97744.91;5097826;27;20037;-74
2023/07/11 06:36:56;;;;;;;13.02;9.68;;;;;;;23.84;100.00;97747.97;5111810;27;20405;-74
2023/07/11 06:39:21;;;;;;;11.07;7.90;;;;;;;24.25;100.00;97732.38;5109026;27;20035;-74
2023/07/11 06:41:47;;;;;;;12.88;7.55;;;;;;;25.34;100.00;97730.47;5108824;27;20037;-75
2023/07/11 06:44:12;;;;;;;11.63;8.25;;;;;;;26.75;100.00;97719.41;5108616;27;20034;-74
2023/07/11 06:46:38;;;;;;;11.77;8.05;;;;;;;26.38;100.00;97722.31;5109573;27;20540;-75
2023/07/11 06:49:03;;;;;;;14.10;7.90;;;;;;;26.35;100.00;97728.16;5090906;28;20035;-74
2023/07/11 06:51:29;;;;;;;12.00;7.78;;;;;;;26.10;100.00;97737.66;5127572;27;20042;-74
2023/07/11 06:53:55;;;;;;;13.05;7.55;;;;;;;26.38;100.00;97716.81;5119043;27;20027;-74
2023/07/11 06:56:22;;;;;;;17.98;8.65;;;;;;;26.04;100.00;97730.19;5105929;27;20027;-74
2023/07/11 06:58:48;;;;;;;52.47;9.73;;;;;;;25.90;100.00;97737.38;5092031;27;20027;-75
2023/07/11 07:01:15;;;;;;;15.93;7.95;;;;;;;26.48;100.00;97727.50;5096132;27;20031;-75
2023/07/11 07:03:40;;;;;;;14.40;8.27;;;;;;;27.23;100.00;97717.88;5143424;27;20396;-75
2023/07/11 07:06:12;;;;;;;18.70;8.15;;;;;;;27.51;96.98;97719.88;5125095;27;20035;-75
2023/07/11 07:08:38;;;;;;;29.27;8.35;;;;;;;27.34;97.63;97711.03;5110739;27;20099;-76
2023/07/11 07:11:04;;;;;;;20.35;7.70;;;;;;;28.23;91.75;97707.59;5110512;27;20447;-74
2023/07/11 07:13:29;;;;;;;14.45;7.70;;;;;;;29.31;85.77;97704.94;5110462;27;20057;-75
2023/07/11 07:15:57;;;;;;;12.48;7.78;;;;;;;30.04;77.98;97703.09;5113221;27;20478;-75
2023/07/11 07:18:23;;;;;;;21.50;8.10;;;;;;;29.25;80.65;97708.53;5115847;27;20109;-75
2023/07/11 07:20:51;;;;;;;12.25;8.95;;;;;;;28.45;90.53;97719.38;5108485;27;20030;-75
2023/07/11 07:23:17;;;;;;;21.20;8.70;;;;;;;29.56;82.10;97707.94;5113717;28;20468;-73
2023/07/11 07:25:55;;;;;;;23.40;8.27;;;;;;;29.68;81.27;97713.69;5115213;27;20123;-74
2023/07/11 07:28:21;;;;;;;20.48;12.48;;;;;;;30.91;70.01;97695.25;5096216;28;20112;-74
2023/07/11 07:30:48;;;;;;;12.35;7.80;;;;;;;30.73;69.50;97697.03;5104044;27;20038;-75
2023/07/11 07:33:14;;;;;;;13.32;7.45;;;;;;;30.41;70.21;97694.13;5102903;27;20471;-76
2023/07/11 07:35:40;;;;;;;12.88;8.75;;;;;;;29.94;75.09;97699.91;5110973;27;20023;-75
2023/07/11 07:38:06;;;;;;;19.92;8.80;;;;;;;30.89;69.67;97693.75;5087348;28;20150;-74
2023/07/11 07:40:32;;;;;;;12.13;7.03;;;;;;;31.44;65.21;97698.56;5094396;27;20115;-75
2023/07/11 07:42:57;;;;;;;11.07;7.25;;;;;;;31.68;62.17;97692.28;5094726;27;20026;-75
2023/07/11 07:45:23;;;;;;;14.30;7.55;;;;;;;31.98;60.72;97689.66;5101134;27;20019;-75
2023/07/11 07:47:48;;;;;;;13.75;7.35;;;;;;;32.55;58.44;97674.59;5104551;28;20111;-75
2023/07/11 07:50:14;;;;;;;11.68;7.40;;;;;;;33.82;53.39;97681.84;5101689;28;20481;-75
2023/07/11 07:52:40;;;;;;;11.52;6.55;;;;;;;34.15;51.49;97675.75;5076104;28;20050;-75
2023/07/11 07:55:06;;;;;;;9.82;6.60;;;;;;;35.88;47.09;97660.47;5103904;27;20035;-75
2023/07/11 07:57:32;;;;;;;10.82;6.72;;;;;;;36.71;44.81;97670.72;5107706;27;20027;-75
2023/07/11 07:59:59;;;;;;;11.80;8.88;;;;;;;35.66;46.06;97667.03;5113197;27;20023;-76
2023/07/11 08:02:24;;;;;;;20.38;15.90;;;;;;;35.78;46.97;97676.16;5083413;28;20027;-75
2023/07/11 08:04:50;;;;;;;19.00;6.93;;;;;;;35.81;47.40;97670.09;5092478;27;20026;-75
2023/07/11 08:07:16;;;;;;;15.25;7.57;;;;;;;35.52;47.69;97666.50;5076047;28;20024;-75
2023/07/11 08:09:42;;;;;;;13.18;7.03;;;;;;;34.25;51.09;97667.66;5085511;27;20083;-75
2023/07/11 08:12:09;;;;;;;12.45;7.10;;;;;;;34.32;52.11;97671.16;5104162;27;20050;-75
2023/07/11 08:14:36;;;;;;;13.57;7.97;;;;;;;34.23;54.28;97670.69;5104650;27;20023;-75
2023/07/11 08:17:02;;;;;;;14.63;6.38;;;;;;;34.84;51.34;97664.59;5077865;28;20055;-75
2023/07/11 08:19:27;;;;;;;12.52;6.63;;;;;;;34.30;52.58;97656.69;5075642;28;20074;-75
2023/07/11 08:21:53;;;;;;;14.70;6.80;;;;;;;35.89;49.16;97666.91;5103411;27;20031;-75
2023/07/11 08:24:18;;;;;;;13.15;6.53;;;;;;;37.24;45.81;97658.00;5078935;27;20095;-75
2023/07/11 08:26:44;;;;;;;11.05;6.63;;;;;;;38.49;43.07;97655.56;5102989;28;20047;-75
2023/07/11 08:29:09;;;;;;;11.52;6.75;;;;;;;39.42;40.95;97647.31;5092185;27;20023;-75
2023/07/11 08:31:35;;;;;;;14.05;6.45;;;;;;;39.56;40.98;97651.28;5104368;27;20027;-75
2023/07/11 08:34:00;;;;;;;8.57;6.47;;;;;;;40.44;38.95;97641.50;5105666;28;20047;-76
2023/07/11 08:36:26;;;;;;;13.48;6.32;;;;;;;38.64;41.01;97642.78;5083734;28;20020;-76
2023/07/11 08:38:51;;;;;;;10.45;7.22;;;;;;;38.67;42.26;97656.22;5106556;27;20098;-75
2023/07/11 08:41:20;;;;;;;9.32;6.88;;;;;;;39.09;42.27;97653.34;5093016;27;20023;-75
2023/07/11 08:43:46;;;;;;;11.35;6.13;;;;;;;38.60;42.46;97650.88;5124973;27;20387;-76
2023/07/11 08:46:14;;;;;;;12.95;6.60;;;;;;;40.26;39.86;97652.47;5086904;27;20092;-76
2023/07/11 08:48:48;;;;;;;9.63;6.40;;;;;;;40.42;38.44;97651.31;5091680;28;20027;-75
2023/07/11 08:51:31;;;;;;;6.60;5.90;;;;;;;38.78;39.86;97644.81;5106563;28;20027;-75
2023/07/11 08:54:03;;;;;;;8.82;6.10;;;;;;;40.16;38.57;97649.66;5075229;28;20212;-75
2023/07/11 08:56:36;;;;;;;23.20;7.50;;;;;;;39.25;40.06;97644.78;5100544;27;20510;-76
2023/07/11 08:59:10;;;;;;;8.65;6.70;;;;;;;37.60;44.23;97657.31;5095206;27;20030;-75
2023/07/11 09:01:45;;;;;;;10.10;6.28;;;;;;;36.26;47.64;97667.25;5111017;27;20458;-75
2023/07/11 09:04:12;;;;;;;11.68;7.40;;;;;;;35.42;49.41;97666.31;5087569;28;20466;-74
2023/07/11 09:06:46;;;;;;;18.85;6.57;;;;;;;34.71;51.62;97664.00;5098329;27;20394;-75
2023/07/11 09:09:11;;;;;;;16.70;6.78;;;;;;;35.42;51.13;97659.88;5104923;28;20092;-75
2023/07/11 09:11:42;;;;;;;12.85;6.80;;;;;;;35.99;49.25;97671.81;5074914;27;20035;-76
2023/07/11 09:14:23;;;;;;;7.38;6.22;;;;;;;36.00;44.52;97645.63;5105425;27;20101;-76
2023/07/11 09:16:58;;;;;;;38.50;7.70;;;;;;;36.69;42.27;97628.31;5109591;28;20375;-74
2023/07/11 09:19:51;;;;;;;23.27;6.78;;;;;;;38.67;37.99;97628.25;5076019;27;20379;-77
2023/07/11 09:22:35;;;;;;;19.20;6.90;;;;;;;40.32;35.32;97618.53;5106483;28;20020;-74
2023/07/11 09:25:24;;;;;;;17.80;7.30;;;;;;;40.78;34.49;97613.63;5098865;27;20534;-76
2023/07/11 09:28:01;;;;;;;12.77;7.13;;;;;;;41.44;32.96;97614.16;5080218;27;20465;-76
2023/07/11 09:30:37;;;;;;;12.43;7.55;;;;;;;41.56;33.03;97613.84;5078924;28;20047;-75
2023/07/11 09:33:26;;;;;;;10.25;6.22;;;;;;;40.26;33.45;97607.59;5078474;28;20031;-75
2023/07/11 09:36:25;;;;;;;17.67;6.38;;;;;;;42.28;32.10;97612.97;5089298;28;20034;-77
2023/07/11 09:38:55;;;;;;;10.00;6.13;;;;;;;41.79;33.14;97615.91;5078756;27;20118;-76
2023/07/11 09:41:44;;;;;;;17.17;8.38;;;;;;;41.86;31.75;97601.53;5100200;28;20110;-76
2023/07/11 09:44:10;;;;;;;7.15;6.43;;;;;;;42.07;31.55;97606.66;5074121;28;20031;-75
2023/07/11 09:46:36;;;;;;;9.65;7.32;;;;;;;41.39;32.40;97605.78;5090604;28;20397;-76
2023/07/11 09:49:03;;;;;;;13.20;6.18;;;;;;;41.44;31.58;97585.25;5082435;28;20472;-75
2023/07/11 09:51:36;;;;;;;19.73;6.45;;;;;;;41.51;31.86;97591.38;5086070;27;20023;-76
2023/07/11 09:54:04;;;;;;;12.02;5.82;;;;;;;41.93;31.43;97593.59;5094487;27;20098;-75
2023/07/11 09:56:43;;;;;;;19.75;6.10;;;;;;;41.62;31.78;97598.59;5093181;27;20011;-75
2023/07/11 09:59:11;;;;;;;6.85;5.60;;;;;;;40.94;32.34;97587.22;5090873;28;20019;-75
2023/07/11 10:01:37;;;;;;;10.77;6.00;;;;;;;40.14;33.39;97593.03;5092322;28;20015;-75
2023/07/11 10:04:06;;;;;;;10.15;5.72;;;;;;;39.75;33.54;97587.97;5094269;27;20425;-75
2023/07/11 10:06:44;;;;;;;9.13;5.70;;;;;;;40.54;33.39;97588.19;5089198;27;20546;-75
2023/07/11 10:09:23;;;;;;;8.48;6.20;;;;;;;41.25;32.99;97592.66;5113286;27;20494;-75
2023/07/11 10:12:00;;;;;;;7.68;5.97;;;;;;;42.58;30.87;97589.28;5094316;28;20074;-76
2023/07/11 10:14:28;;;;;;;10.88;5.88;;;;;;;41.00;32.98;97593.63;5100127;28;20032;-75
2023/07/11 10:16:55;;;;;;;14.50;5.80;;;;;;;41.71;33.23;97596.84;5076437;28;20035;-77
2023/07/11 10:19:21;;;;;;;10.02;5.75;;;;;;;41.62;33.30;97592.97;5091825;28;20092;-76
2023/07/11 10:21:48;;;;;;;20.10;12.52;;;;;;;42.05;32.41;97586.44;5075965;28;20028;-76
2023/07/11 10:24:16;;;;;;;10.80;5.93;;;;;;;41.47;32.45;97579.88;5092729;28;20024;-76
2023/07/11 10:26:43;;;;;;;10.55;6.20;;;;;;;41.09;33.09;97589.94;5075758;28;20055;-75
2023/07/11 10:29:16;;;;;;;15.30;5.75;;;;;;;41.36;33.09;97580.25;5092779;28;20031;-74
2023/07/11 10:31:50;;;;;;;6.15;5.47;;;;;;;41.07;33.55;97578.13;5091108;28;20088;-74
2023/07/11 10:34:30;;;;;;;12.50;6.50;;;;;;;41.18;33.65;97586.50;5082899;28;20015;-74
2023/07/11 10:37:05;;;;;;;9.52;5.97;;;;;;;42.35;32.37;97573.22;5101348;28;20504;-76
2023/07/11 10:39:41;;;;;;;19.25;6.40;;;;;;;41.84;32.89;97578.50;5081117;28;20185;-74
2023/07/11 10:42:23;;;;;;;14.65;6.57;;;;;;;42.16;31.75;97565.50;5110883;28;20382;-74
2023/07/11 10:44:54;;;;;;;8.15;6.47;;;;;;;41.48;32.90;97569.47;5131384;28;20019;-74
2023/07/11 10:47:29;;;;;;;28.83;6.57;;;;;;;41.26;33.42;97571.84;5084352;28;20475;-74
2023/07/11 10:49:56;;;;;;;14.15;5.88;;;;;;;41.95;31.74;97563.19;5092501;28;20039;-74
2023/07/11 10:52:24;;;;;;;13.32;6.47;;;;;;;42.46;30.91;97569.13;5106064;28;20050;-74
2023/07/11 10:55:01;;;;;;;6.53;5.70;;;;;;;42.43;30.81;97547.22;5088345;28;20050;-75
2023/07/11 10:57:39;;;;;;;6.70;5.90;;;;;;;43.28;30.33;97547.28;5096842;28;20038;-75
2023/07/11 11:00:13;;;;;;;12.05;6.25;;;;;;;42.83;31.17;97551.53;5079168;28;20042;-75
2023/07/11 11:02:58;;;;;;;34.17;6.95;;;;;;;44.05;30.19;97552.22;5092374;28;20066;-75
2023/07/11 11:05:45;;;;;;;11.25;5.45;;;;;;;43.14;29.80;97548.03;5076878;28;20020;-76
2023/07/11 11:08:36;;;;;;;8.65;5.88;;;;;;;43.02;30.55;97539.19;5075435;28;20047;-76
2023/07/11 11:11:13;;;;;;;13.13;6.78;;;;;;;43.48;30.32;97541.34;5075215;28;20060;-74
2023/07/11 11:14:06;;;;;;;9.50;5.70;;;;;;;43.69;29.65;97537.03;5093993;27;20031;-76
2023/07/11 11:16:37;;;;;;;17.52;5.85;;;;;;;43.83;29.97;97537.09;5108214;28;20023;-76
2023/07/11 11:19:26;;;;;;;12.27;6.32;;;;;;;44.30;28.93;97528.34;5079192;28;20138;-76
2023/07/11 11:21:52;;;;;;;19.58;6.13;;;;;;;44.58;28.55;97532.06;5103489;27;20030;-76
2023/07/11 11:24:29;;;;;;;10.88;6.55;;;;;;;43.24;30.40;97530.13;5106489;27;20027;-76
2023/07/11 11:26:59;;;;;;;8.93;5.95;;;;;;;41.60;31.63;97539.03;5096047;28;20046;-75
2023/07/11 11:29:37;;;;;;;7.72;5.93;;;;;;;40.39;32.87;97528.47;5104249;27;20490;-76
2023/07/11 11:32:05;;;;;;;11.68;6.35;;;;;;;40.10;33.10;97530.22;5095577;27;20023;-75
2023/07/11 11:35:00;;;;;;;9.50;6.28;;;;;;;39.48;34.46;97531.34;5116169;27;20050;-75
2023/07/11 11:37:44;;;;;;;7.88;5.95;;;;;;;39.65;33.86;97523.53;5079417;28;20054;-75